createdAt,value
2024-05-09T00:02:16.172Z,4.75
2024-05-09T00:05:24.698Z,4.43
2024-05-09T00:08:30.109Z,4.57
2024-05-09T00:11:35.623Z,3.85
2024-05-09T00:14:40.891Z,6.97
2024-05-09T00:17:46.684Z,4.88
2024-05-09T00:20:54.901Z,6.95
2024-05-09T00:24:00.396Z,5.38
2024-05-09T00:27:05.970Z,6.53
2024-05-09T00:30:17.802Z,5.28
2024-05-09T00:33:29.738Z,6.40
2024-05-09T00:36:37.988Z,8.77
2024-05-09T00:39:43.119Z,7.97
2024-05-09T00:42:50.319Z,8.48
2024-05-09T00:45:57.417Z,7.82
2024-05-09T00:49:05.317Z,7.38
2024-05-09T00:52:13.716Z,9.13
2024-05-09T00:55:20.149Z,6.85
2024-05-09T00:58:27.248Z,7.13
2024-05-09T01:01:33.026Z,12.27
2024-05-09T01:04:38.739Z,8.93
2024-05-09T01:07:47.175Z,8.10
2024-05-09T01:10:52.508Z,6.28
2024-05-09T01:13:59.250Z,8.50
2024-05-09T01:17:04.659Z,6.82
2024-05-09T01:20:19.705Z,7.07
2024-05-09T01:23:31.031Z,7.88
2024-05-09T01:26:36.758Z,8.63
2024-05-09T01:29:41.958Z,5.80
2024-05-09T01:32:47.656Z,5.30
2024-05-09T01:35:53.112Z,9.55
2024-05-09T01:39:01.770Z,8.60
2024-05-09T01:42:07.903Z,5.72
2024-05-09T01:45:13.957Z,6.57
2024-05-09T01:48:19.278Z,5.97
2024-05-09T01:51:25.573Z,6.97
2024-05-09T01:54:33.442Z,7.80
2024-05-09T01:57:38.900Z,7.07
2024-05-09T02:00:45.251Z,7.37
2024-05-09T02:03:50.937Z,6.00
2024-05-09T02:06:56.576Z,5.70
2024-05-09T02:10:10.961Z,6.10
2024-05-09T02:13:21.733Z,8.10
2024-05-09T02:16:27.272Z,7.60
2024-05-09T02:19:33.070Z,7.93
2024-05-09T02:22:38.695Z,5.25
2024-05-09T02:25:46.770Z,5.90
2024-05-09T02:28:52.346Z,6.40
2024-05-09T02:31:57.802Z,8.13
2024-05-09T02:35:03.477Z,5.45
2024-05-09T02:38:08.840Z,6.10
2024-05-09T02:41:14.329Z,6.00
2024-05-09T02:44:19.953Z,6.78
2024-05-09T02:47:23.074Z,5.68
2024-05-09T02:50:34.648Z,5.90
2024-05-09T02:53:44.685Z,5.30
2024-05-09T02:56:49.977Z,8.20
2024-05-09T02:59:55.473Z,5.15
2024-05-09T03:02:58.205Z,5.73
2024-05-09T03:06:05.158Z,6.30
2024-05-09T03:09:09.705Z,6.47
2024-05-09T03:12:18.034Z,7.70
2024-05-09T03:15:22.499Z,6.28
2024-05-09T03:18:28.266Z,7.13
2024-05-09T03:21:30.994Z,8.88
2024-05-09T03:24:36.478Z,8.48
2024-05-09T03:27:44.441Z,6.40
2024-05-09T03:30:47.569Z,8.77
2024-05-09T03:33:53.051Z,9.80
2024-05-09T03:36:59.818Z,11.85
2024-05-09T03:40:09.272Z,13.05
2024-05-09T03:43:20.439Z,12.73
2024-05-09T03:46:26.366Z,11.13
2024-05-09T03:49:29.222Z,11.95
2024-05-09T03:52:34.458Z,8.63
2024-05-09T03:55:37.572Z,10.18
2024-05-09T03:58:45.824Z,11.30
2024-05-09T04:01:49.272Z,9.00
2024-05-09T04:04:54.697Z,15.33
2024-05-09T04:08:00.893Z,8.45
2024-05-09T04:11:03.891Z,7.63
2024-05-09T04:14:12.514Z,6.83
2024-05-09T04:17:15.420Z,7.45
2024-05-09T04:20:32.550Z,7.32
2024-05-09T04:23:43.459Z,10.38
2024-05-09T04:26:46.296Z,7.63
2024-05-09T04:29:54.120Z,8.73
2024-05-09T04:32:57.242Z,5.82
2024-05-09T04:36:02.546Z,6.83
2024-05-09T04:39:05.383Z,7.35
2024-05-09T04:42:10.557Z,6.70
2024-05-09T04:45:17.198Z,5.87
2024-05-09T04:48:22.827Z,7.53
2024-05-09T04:51:25.732Z,5.38
2024-05-09T04:54:36.209Z,5.72
2024-05-09T04:57:40.209Z,7.32
2024-05-09T05:00:48.220Z,4.93
2024-05-09T05:03:51.347Z,6.72
2024-05-09T05:06:59.660Z,6.43
2024-05-09T05:10:05.832Z,7.38
2024-05-09T05:13:23.825Z,11.38
2024-05-09T05:16:32.829Z,6.23
2024-05-09T05:19:38.261Z,6.95
2024-05-09T05:22:43.179Z,7.38
2024-05-09T05:25:51.117Z,5.68
2024-05-09T05:28:54.162Z,10.35
2024-05-09T05:32:02.515Z,7.82
2024-05-09T05:35:05.962Z,7.25
2024-05-09T05:38:12.835Z,5.23
2024-05-09T05:41:18.370Z,6.88
2024-05-09T05:44:21.209Z,10.23
2024-05-09T05:50:37.712Z,8.55
2024-05-09T05:53:41.598Z,6.32
2024-05-09T05:56:46.965Z,5.13
2024-05-09T05:59:50.054Z,5.88
2024-05-09T06:02:58.077Z,5.95
2024-05-09T06:06:06.196Z,9.00
2024-05-09T06:09:08.893Z,11.27
2024-05-09T06:12:14.690Z,9.70
2024-05-09T06:15:17.400Z,13.18
2024-05-09T06:18:25.945Z,6.17
2024-05-09T06:21:28.910Z,8.70
2024-05-09T06:24:34.523Z,9.57
2024-05-09T06:27:39.790Z,11.10
2024-05-09T06:30:43.396Z,5.55
2024-05-09T06:33:51.743Z,10.10
2024-05-09T06:36:54.790Z,9.82
2024-05-09T06:40:00.343Z,10.20
2024-05-09T06:43:03.453Z,8.82
2024-05-09T06:46:08.711Z,5.97
2024-05-09T06:49:14.711Z,7.07
2024-05-09T06:52:20.473Z,4.70
2024-05-09T06:55:23.292Z,5.90
2024-05-09T06:58:28.823Z,5.75
2024-05-09T07:01:34.649Z,5.72
2024-05-09T07:04:42.602Z,5.20
2024-05-09T07:07:45.567Z,6.80
2024-05-09T07:10:51.089Z,3.73
2024-05-09T07:13:54.243Z,3.58
2024-05-09T07:17:00.023Z,5.00
2024-05-09T07:20:16.210Z,6.13
2024-05-09T07:23:25.503Z,5.50
2024-05-09T07:26:28.588Z,3.47
2024-05-09T07:29:37.866Z,4.57
2024-05-09T07:32:41.516Z,6.32
2024-05-09T07:35:49.620Z,7.75
2024-05-09T07:38:52.527Z,5.13
2024-05-09T07:41:58.729Z,8.43
2024-05-09T07:45:21.028Z,4.75
2024-05-09T07:50:00.397Z,5.35
2024-05-09T07:53:21.838Z,8.87
2024-05-09T07:55:19.423Z,6.55
2024-05-09T07:58:27.782Z,10.32
2024-05-09T08:01:33.465Z,5.45
2024-05-09T08:04:36.605Z,3.67
2024-05-09T08:07:45.453Z,4.80
2024-05-09T08:10:48.347Z,7.88
2024-05-09T08:13:53.647Z,5.47
2024-05-09T08:16:57.398Z,6.90
2024-05-09T08:20:05.500Z,7.90
2024-05-09T08:23:11.543Z,4.93
2024-05-09T08:26:16.784Z,6.35
2024-05-09T08:29:22.306Z,5.13
2024-05-09T08:32:27.318Z,5.68
2024-05-09T08:35:35.111Z,4.18
2024-05-09T08:38:40.626Z,8.10
2024-05-09T08:41:46.171Z,7.70
2024-05-09T08:44:52.235Z,5.63
2024-05-09T08:47:57.006Z,4.57
2024-05-09T08:51:02.313Z,5.85
2024-05-09T08:54:10.468Z,4.40
2024-05-09T08:57:17.634Z,6.80
2024-05-09T09:00:29.207Z,6.95
2024-05-09T09:03:40.394Z,6.20
2024-05-09T09:06:44.912Z,5.18
2024-05-09T09:09:53.555Z,6.70
2024-05-09T09:12:58.113Z,3.88
2024-05-09T09:16:03.921Z,5.23
2024-05-09T09:19:07.081Z,4.75
2024-05-09T09:22:14.138Z,4.43
2024-05-09T09:25:21.160Z,7.20
2024-05-09T09:28:26.398Z,4.13
2024-05-09T09:31:30.501Z,6.43
2024-05-09T09:34:36.692Z,5.05
2024-05-09T09:37:39.503Z,5.35
2024-05-09T09:40:50.497Z,9.88
2024-05-09T09:43:55.184Z,4.25
2024-05-09T09:47:02.109Z,5.13
2024-05-09T09:50:11.813Z,3.67
2024-05-09T09:53:20.100Z,4.10
2024-05-09T09:56:30.281Z,5.00
2024-05-09T09:59:38.455Z,6.60
2024-05-09T10:02:41.388Z,4.70
2024-05-09T10:05:47.530Z,3.13
2024-05-09T10:08:53.988Z,4.95
2024-05-09T10:12:12.405Z,4.20
2024-05-09T10:15:20.094Z,6.82
2024-05-09T10:18:30.180Z,6.20
2024-05-09T10:21:34.244Z,6.70
2024-05-09T10:24:50.979Z,3.78
2024-05-09T10:27:57.923Z,5.93
2024-05-09T10:31:10.297Z,5.55
2024-05-09T10:34:23.125Z,5.88
2024-05-09T10:37:27.898Z,6.20
2024-05-09T10:40:34.658Z,4.40
2024-05-09T10:43:44.283Z,4.95
2024-05-09T10:46:50.423Z,5.63
2024-05-09T10:49:54.557Z,4.67
2024-05-09T10:53:00.138Z,4.03
2024-05-09T10:56:03.025Z,8.57
2024-05-09T10:59:11.184Z,3.80
2024-05-09T11:02:15.202Z,4.80
2024-05-09T11:05:21.278Z,4.75
2024-05-09T11:08:27.226Z,6.22
2024-05-09T11:11:35.452Z,10.90
2024-05-09T11:14:40.852Z,5.80
2024-05-09T11:17:46.509Z,6.28
2024-05-09T11:20:51.943Z,5.10
2024-05-09T11:23:58.710Z,4.95
2024-05-09T11:27:06.887Z,4.18
2024-05-09T11:30:27.036Z,5.07
2024-05-09T11:33:39.911Z,3.73
2024-05-09T11:36:45.824Z,3.75
2024-05-09T11:39:51.206Z,3.67
2024-05-09T11:42:54.264Z,5.68
2024-05-09T11:46:03.601Z,3.42
2024-05-09T11:49:10.064Z,4.88
2024-05-09T11:52:15.651Z,4.60
2024-05-09T11:55:19.000Z,3.80
2024-05-09T11:58:25.192Z,4.10
2024-05-09T12:01:33.629Z,4.43
2024-05-09T12:04:36.776Z,5.65
2024-05-09T12:07:43.471Z,6.53
2024-05-09T12:10:49.197Z,4.70
2024-05-09T12:13:52.535Z,4.00
2024-05-09T12:17:01.991Z,4.82
2024-05-09T12:20:14.292Z,6.82
2024-05-09T12:23:23.951Z,5.50
2024-05-09T12:26:29.969Z,3.75
2024-05-09T12:29:34.414Z,3.58
2024-05-09T12:32:46.183Z,5.35
2024-05-09T12:35:50.887Z,3.37
2024-05-09T12:38:56.850Z,5.13
2024-05-09T12:41:59.556Z,3.38
2024-05-09T12:45:05.136Z,3.70
2024-05-09T12:48:12.375Z,3.30
2024-05-09T12:51:18.680Z,2.43
2024-05-09T12:54:21.230Z,4.10
2024-05-09T12:57:27.060Z,4.18
2024-05-09T13:00:33.735Z,4.72
2024-05-09T13:03:42.922Z,3.58
2024-05-09T13:06:45.998Z,4.10
2024-05-09T13:09:51.631Z,4.65
2024-05-09T13:12:56.901Z,7.53
2024-05-09T13:16:00.197Z,7.63
2024-05-09T13:19:08.333Z,3.08
2024-05-09T13:22:13.961Z,5.07
2024-05-09T13:25:16.962Z,4.15
2024-05-09T13:28:22.900Z,4.28
2024-05-09T13:31:25.796Z,3.03
2024-05-09T13:34:34.216Z,3.28
2024-05-09T13:37:39.729Z,4.73
2024-05-09T13:40:45.585Z,3.85
2024-05-09T13:43:48.513Z,7.20
2024-05-09T13:46:54.255Z,3.88
2024-05-09T13:49:59.688Z,4.18
2024-05-09T13:53:07.015Z,4.30
2024-05-09T13:56:13.443Z,8.37
2024-05-09T13:59:16.313Z,5.50
2024-05-09T14:02:21.782Z,4.35
2024-05-09T14:05:27.521Z,3.17
2024-05-09T14:08:33.029Z,5.00
2024-05-09T14:11:38.840Z,6.30
2024-05-09T14:14:41.699Z,4.53
2024-05-09T14:17:47.502Z,5.80
2024-05-09T14:20:55.399Z,5.18
2024-05-09T14:23:58.359Z,6.17
2024-05-09T14:27:04.565Z,2.83
2024-05-09T14:30:18.374Z,6.30
2024-05-09T14:33:31.481Z,4.60
2024-05-09T14:36:37.568Z,3.47
2024-05-09T14:39:42.843Z,6.77
2024-05-09T14:42:48.511Z,10.33
2024-05-09T14:45:51.297Z,8.15
2024-05-09T14:48:58.407Z,5.47
2024-05-09T14:52:07.120Z,5.25
2024-05-09T14:55:12.252Z,4.13
2024-05-09T14:58:18.193Z,3.37
2024-05-09T15:01:23.994Z,4.45
2024-05-09T15:04:29.976Z,3.03
2024-05-09T15:07:35.672Z,6.03
2024-05-09T15:10:41.451Z,3.60
2024-05-09T15:13:44.397Z,3.00
2024-05-09T15:16:50.681Z,5.72
2024-05-09T15:19:53.936Z,8.68
2024-05-09T15:23:01.937Z,6.38
2024-05-09T15:26:05.400Z,6.53
2024-05-09T15:29:10.756Z,5.70
2024-05-09T15:32:14.716Z,6.15
2024-05-09T15:35:20.117Z,5.20
2024-05-09T15:38:27.591Z,8.88
2024-05-09T15:41:33.026Z,5.03
2024-05-09T15:44:36.006Z,9.50
2024-05-09T15:47:41.304Z,5.45
2024-05-09T15:50:44.715Z,6.03
2024-05-09T15:53:52.828Z,5.20
2024-05-09T15:56:55.834Z,4.37
2024-05-09T16:00:01.291Z,6.37
2024-05-09T16:03:07.785Z,7.50
2024-05-09T16:06:13.758Z,3.83
2024-05-09T16:09:21.216Z,5.90
2024-05-09T16:12:26.563Z,4.27
2024-05-09T16:15:29.569Z,3.67
2024-05-09T16:18:35.249Z,2.88
2024-05-09T16:21:38.466Z,4.28
2024-05-09T16:24:46.620Z,7.55
2024-05-09T16:27:51.206Z,4.63
2024-05-09T16:30:56.712Z,3.47
2024-05-09T16:33:59.809Z,4.35
2024-05-09T16:37:06.630Z,5.68
2024-05-09T16:40:21.443Z,4.50
2024-05-09T16:43:31.188Z,3.83
2024-05-09T16:46:34.401Z,5.23
2024-05-09T16:49:40.071Z,7.43
2024-05-09T16:52:43.241Z,3.15
2024-05-09T16:55:51.205Z,4.90
2024-05-09T16:58:54.042Z,2.97
2024-05-09T17:02:00.161Z,5.47
2024-05-09T17:05:03.712Z,3.40
2024-05-09T17:08:10.439Z,4.80
2024-05-09T17:11:18.685Z,4.50
2024-05-09T17:14:24.262Z,5.33
2024-05-09T17:17:30.151Z,2.63
2024-05-09T17:20:37.255Z,4.43
2024-05-09T17:23:40.948Z,3.67
2024-05-09T17:26:49.656Z,4.18
2024-05-09T17:29:52.683Z,3.37
2024-05-09T17:32:58.185Z,3.60
2024-05-09T17:36:03.877Z,3.88
2024-05-09T17:39:06.612Z,6.47
2024-05-09T17:42:15.097Z,3.30
2024-05-09T17:45:17.949Z,5.53
2024-05-09T17:48:23.704Z,3.13
2024-05-09T17:51:29.145Z,7.97
2024-05-09T17:54:32.074Z,4.25
2024-05-09T17:57:40.055Z,3.97
2024-05-09T18:00:43.088Z,4.60
2024-05-09T18:03:49.959Z,4.55
2024-05-09T18:06:53.143Z,6.82
2024-05-09T18:09:58.655Z,5.20
2024-05-09T18:13:07.559Z,4.32
2024-05-09T18:16:13.292Z,5.63
2024-05-09T18:19:16.699Z,4.68
2024-05-09T18:22:23.610Z,5.85
2024-05-09T18:25:27.380Z,4.23
2024-05-09T18:28:35.556Z,5.57
2024-05-09T18:31:39.190Z,5.68
2024-05-09T18:34:44.705Z,5.72
2024-05-09T18:37:47.795Z,7.00
2024-05-09T18:40:53.047Z,5.97
2024-05-09T18:43:59.557Z,7.30
2024-05-09T18:47:05.234Z,6.70
2024-05-09T18:50:14.654Z,6.72
2024-05-09T18:53:26.169Z,9.13
2024-05-09T18:56:31.759Z,5.20
2024-05-09T18:59:37.090Z,9.00
2024-05-09T19:02:42.812Z,6.47
2024-05-09T19:05:46.442Z,6.22
2024-05-09T19:08:52.523Z,4.37
2024-05-09T19:12:00.580Z,4.38
2024-05-09T19:15:07.197Z,4.07
2024-05-09T19:18:13.892Z,4.20
2024-05-09T19:21:17.445Z,4.60
2024-05-09T19:24:22.850Z,6.05
2024-05-09T19:27:25.952Z,5.18
2024-05-09T19:30:39.667Z,5.53
2024-05-09T19:33:47.876Z,6.00
2024-05-09T19:36:51.387Z,4.22
2024-05-09T19:39:57.136Z,6.30
2024-05-09T19:42:59.938Z,9.45
2024-05-09T19:46:09.018Z,4.57
2024-05-09T19:49:11.921Z,6.30
2024-05-09T19:52:18.421Z,8.40
2024-05-09T19:55:24.188Z,5.25
2024-05-09T19:58:29.918Z,7.47
2024-05-09T20:01:35.592Z,4.10
2024-05-09T20:04:45.046Z,3.90
2024-05-09T20:07:47.832Z,4.82
2024-05-09T20:10:54.049Z,6.43
2024-05-09T20:13:58.552Z,4.30
2024-05-09T20:17:07.639Z,7.20
2024-05-09T20:20:20.766Z,6.32
2024-05-09T20:23:34.151Z,4.05
2024-05-09T20:26:37.243Z,5.53
2024-05-09T20:29:43.254Z,6.90
2024-05-09T20:32:48.815Z,8.03
2024-05-09T20:35:55.529Z,6.53
2024-05-09T20:38:58.274Z,10.70
2024-05-09T20:42:05.204Z,7.50
2024-05-09T20:45:11.831Z,7.85
2024-05-09T20:48:17.750Z,4.97
2024-05-09T20:51:23.241Z,6.32
2024-05-09T20:54:26.252Z,7.97
2024-05-09T20:57:32.104Z,7.65
2024-05-09T21:00:40.109Z,7.60
2024-05-09T21:03:51.422Z,6.40
2024-05-09T21:06:54.503Z,7.10
2024-05-09T21:10:00.011Z,10.50
2024-05-09T21:13:03.763Z,6.60
2024-05-09T21:16:10.796Z,7.40
2024-05-09T21:19:16.380Z,14.20
2024-05-09T21:22:21.857Z,13.65
2024-05-09T21:25:27.713Z,17.23
2024-05-09T21:28:30.583Z,10.85
2024-05-09T21:31:36.253Z,14.82
2024-05-09T21:34:41.566Z,17.10
2024-05-09T21:37:47.212Z,14.98
2024-05-09T21:40:52.723Z,15.18
2024-05-09T21:43:59.490Z,11.47
2024-05-09T21:47:05.198Z,11.30
2024-05-09T21:50:22.189Z,13.43
2024-05-09T21:53:28.904Z,14.02
2024-05-09T21:56:31.783Z,10.75
2024-05-09T21:59:37.006Z,9.85
2024-05-09T22:02:40.507Z,9.55
2024-05-09T22:05:48.673Z,11.40
2024-05-09T22:08:51.507Z,10.90
2024-05-09T22:15:00.140Z,13.93
2024-05-09T22:18:05.635Z,11.63
2024-05-09T22:21:14.056Z,10.88
2024-05-09T22:24:19.426Z,12.45
2024-05-09T22:27:22.361Z,15.25
2024-05-09T22:30:34.797Z,9.82
2024-05-09T22:33:47.152Z,12.05
2024-05-09T22:36:53.196Z,11.90
2024-05-09T22:39:58.928Z,14.85
2024-05-09T22:43:01.519Z,11.63
2024-05-09T22:46:07.562Z,13.07
2024-05-09T22:49:10.284Z,10.32
2024-05-09T22:52:18.611Z,13.15
2024-05-09T22:55:21.291Z,14.35
2024-05-09T22:58:26.844Z,10.68
2024-05-09T23:01:32.209Z,10.85
2024-05-09T23:04:35.538Z,12.63
2024-05-09T23:07:43.404Z,10.53
2024-05-09T23:10:46.411Z,11.68
2024-05-09T23:13:51.815Z,11.73
2024-05-09T23:16:57.431Z,13.23
2024-05-09T23:20:00.330Z,12.23
2024-05-09T23:23:09.760Z,9.35
2024-05-09T23:26:16.101Z,12.75
2024-05-09T23:29:21.628Z,9.23
2024-05-09T23:32:27.184Z,9.75
2024-05-09T23:35:30.075Z,11.27
2024-05-09T23:38:38.138Z,9.50
2024-05-09T23:41:43.952Z,9.95
2024-05-09T23:44:46.565Z,8.23
2024-05-09T23:47:52.258Z,9.83
2024-05-09T23:50:55.348Z,11.57
2024-05-09T23:54:03.466Z,9.90
2024-05-09T23:57:06.110Z,10.88
